Time;durP1;ratioP1;P1;durP2;ratioP2;P2;SDS_P1;SDS_P2;PMS_P1;PMS_P2;Temp;Humidity;BMP_temperature;BMP_pressure;BME280_temperature;BME280_humidity;BME280_pressure;Samples;Min_cycle;Max_cycle;Signal;HPM_P1;HPM_P2
2022/10/03 00:01:36;;;;;;;;;;;;;;;11.92;81.91;99777.88;4920370;29;19923;-67
2022/10/03 00:04:06;;;;;;;;;;;;;;;11.92;81.93;99776.06;4920829;29;19994;-66
2022/10/03 00:06:32;;;;;;;;;;;;;;;11.93;81.74;99776.91;4922463;29;19923;-67
2022/10/03 00:08:59;;;;;;;;;;;;;;;11.94;81.64;99783.84;4923913;29;19994;-67
2022/10/03 00:11:44;;;;;;;;;;;;;;;11.97;81.50;99786.13;4916820;29;19927;-67
2022/10/03 00:14:21;;;;;;;;;;;;;;;12.00;81.40;99791.91;4915838;29;19923;-67
2022/10/03 00:16:52;;;;;;;;;;;;;;;12.02;81.34;99789.88;4916018;29;19923;-67
2022/10/03 00:19:22;;;;;;;;;;;;;;;12.03;81.33;99796.00;4917046;29;20005;-67
2022/10/03 00:21:48;;;;;;;;;;;;;;;12.05;81.62;99796.66;4916793;29;19923;-67
2022/10/03 00:24:24;;;;;;;;;;;;;;;12.06;81.37;99787.72;4915826;29;19927;-66
2022/10/03 00:27:02;;;;;;;;;;;;;;;12.07;81.10;99800.78;4914874;29;19923;-67
2022/10/03 00:29:38;;;;;;;;;;;;;;;12.05;80.78;99796.66;4915474;29;20010;-67
2022/10/03 00:32:27;;;;;;;;;;;;;;;12.02;80.77;99802.31;4916458;29;19970;-67
2022/10/03 00:35:19;;;;;;;;;;;;;;;12.02;81.29;99816.38;4916676;29;19923;-67
2022/10/03 00:38:04;;;;;;;;;;;;;;;12.03;81.27;99827.81;4915005;29;19975;-67
2022/10/03 00:40:49;;;;;;;;;;;;;;;12.02;81.22;99831.47;4915707;29;20339;-66
2022/10/03 00:43:25;;;;;;;;;;;;;;;12.01;81.32;99832.47;4923413;29;20351;-67
2022/10/03 00:46:01;;;;;;;;;;;;;;;11.98;80.93;99830.19;4924600;29;19927;-67
2022/10/03 00:48:39;;;;;;;;;;;;;;;11.98;81.19;99833.66;4921639;29;19945;-67
2022/10/03 00:51:25;;;;;;;;;;;;;;;11.95;80.68;99827.88;4922863;29;19923;-67
2022/10/03 00:54:01;;;;;;;;;;;;;;;11.88;81.01;99827.75;4921558;29;19927;-67
2022/10/03 00:56:30;;;;;;;;;;;;;;;11.88;80.66;99843.66;4922776;29;19927;-67
2022/10/03 00:59:06;;;;;;;;;;;;;;;11.84;80.59;99840.53;4921657;29;19923;-66
2022/10/03 01:01:35;;;;;;;;;;;;;;;11.79;80.65;99842.84;4921679;29;19927;-67
2022/10/03 01:04:25;;;;;;;;;;;;;;;11.74;80.70;99844.38;4922579;29;19982;-66
2022/10/03 01:07:04;;;;;;;;;;;;;;;11.72;80.62;99851.69;4919136;29;20387;-67
2022/10/03 01:09:54;;;;;;;;;;;;;;;11.69;80.74;99850.19;4905620;29;19923;-67
2022/10/03 01:12:27;;;;;;;;;;;;;;;11.61;80.29;99844.94;4916455;29;19987;-67
2022/10/03 01:14:53;;;;;;;;;;;;;;;11.55;80.42;99845.63;4922558;29;20342;-67
2022/10/03 01:17:30;;;;;;;;;;;;;;;11.53;80.64;99850.28;4920810;29;19923;-67
2022/10/03 01:20:03;;;;;;;;;;;;;;;11.53;80.91;99847.63;4921084;29;19927;-68
2022/10/03 01:22:32;;;;;;;;;;;;;;;11.49;80.37;99855.09;4921201;29;19970;-68
2022/10/03 01:25:25;;;;;;;;;;;;;;;11.44;80.39;99856.63;4922369;29;19966;-68
2022/10/03 01:30:50;;;;;;;;;;;;;;;11.23;80.54;99850.06;4921220;29;20310;-67
2022/10/03 01:33:22;;;;;;;;;;;;;;;11.19;80.51;99851.41;4921071;29;19923;-68
2022/10/03 01:36:28;;;;;;;;;;;;;;;11.18;80.82;99859.50;4921209;29;19930;-68
2022/10/03 01:39:14;;;;;;;;;;;;;;;11.21;81.15;99851.22;4885360;29;19927;-68
2022/10/03 01:41:47;;;;;;;;;;;;;;;11.20;80.86;99861.00;4901471;29;19955;-67
2022/10/03 01:44:32;;;;;;;;;;;;;;;11.19;81.12;99850.59;4916781;29;20371;-67
2022/10/03 01:47:17;;;;;;;;;;;;;;;11.22;81.44;99848.41;4923852;29;19970;-68
2022/10/03 01:49:52;;;;;;;;;;;;;;;11.19;80.99;99846.13;4923584;29;19923;-67
2022/10/03 01:52:28;;;;;;;;;;;;;;;11.17;80.73;99853.41;4921469;29;19923;-67
2022/10/03 01:55:02;;;;;;;;;;;;;;;11.17;80.73;99856.03;4919843;29;19926;-67
2022/10/03 01:57:34;;;;;;;;;;;;;;;11.18;80.84;99849.75;4919796;29;19922;-67
2022/10/03 02:00:09;;;;;;;;;;;;;;;11.19;81.05;99855.88;4919814;29;19923;-69
2022/10/03 02:02:44;;;;;;;;;;;;;;;11.14;80.97;99851.94;4918724;29;20361;-67
2022/10/03 02:05:16;;;;;;;;;;;;;;;11.15;81.13;99845.63;4918422;29;19931;-67
2022/10/03 02:07:48;;;;;;;;;;;;;;;11.19;80.81;99861.19;4918879;29;19926;-67
2022/10/03 02:10:31;;;;;;;;;;;;;;;11.22;80.73;99856.34;4919775;29;19923;-69
2022/10/03 02:13:08;;;;;;;;;;;;;;;11.26;80.96;99854.19;4919585;29;19923;-67
2022/10/03 02:15:40;;;;;;;;;;;;;;;11.29;81.04;99849.38;4919460;29;19927;-67
2022/10/03 02:18:11;;;;;;;;;;;;;;;11.29;80.97;99846.72;4919227;29;19930;-67
2022/10/03 02:20:38;;;;;;;;;;;;;;;11.29;81.04;99849.38;4919161;29;20301;-67
2022/10/03 02:23:21;;;;;;;;;;;;;;;11.30;80.95;99848.38;4919438;29;19930;-68
2022/10/03 02:25:48;;;;;;;;;;;;;;;11.30;80.60;99843.06;4918996;29;20295;-67
2022/10/03 02:28:20;;;;;;;;;;;;;;;11.24;80.56;99843.78;4917082;29;19984;-67
2022/10/03 02:30:59;;;;;;;;;;;;;;;11.22;80.84;99839.66;4918963;29;20387;-67
2022/10/03 02:33:36;;;;;;;;;;;;;;;11.21;80.60;99841.47;4917665;29;19923;-67
2022/10/03 02:36:22;;;;;;;;;;;;;;;11.19;80.31;99838.19;4917408;29;20378;-67
2022/10/03 02:38:58;;;;;;;;;;;;;;;11.18;79.87;99838.34;4917250;29;19923;-67
2022/10/03 02:41:31;;;;;;;;;;;;;;;11.13;79.59;99829.09;4918427;29;19927;-66
2022/10/03 02:44:13;;;;;;;;;;;;;;;11.11;80.33;99830.28;4917412;29;19926;-66
2022/10/03 02:46:42;;;;;;;;;;;;;;;11.05;79.94;99823.81;4917927;29;19923;-66
2022/10/03 02:49:09;;;;;;;;;;;;;;;10.99;80.03;99826.34;4916942;29;20446;-66
2022/10/03 02:51:35;;;;;;;;;;;;;;;10.98;79.83;99829.97;4916875;29;19967;-67
2022/10/03 02:54:14;;;;;;;;;;;;;;;10.91;79.96;99821.91;4917131;29;20339;-67
2022/10/03 02:56:59;;;;;;;;;;;;;;;10.89;80.29;99821.22;4916377;29;19978;-67
2022/10/03 02:59:26;;;;;;;;;;;;;;;10.85;80.12;99819.91;4918207;29;19955;-66
2022/10/03 03:02:11;;;;;;;;;;;;;;;10.84;80.07;99820.91;4918251;29;19923;-66
2022/10/03 03:04:55;;;;;;;;;;;;;;;10.84;80.20;99826.22;4917638;29;20347;-67
2022/10/03 03:07:40;;;;;;;;;;;;;;;10.82;80.22;99833.50;4918116;29;19923;-67
2022/10/03 03:10:27;;;;;;;;;;;;;;;10.80;79.88;99840.75;4916924;29;19923;-67
2022/10/03 03:12:56;;;;;;;;;;;;;;;10.81;80.40;99840.59;4917879;29;19927;-67
2022/10/03 03:15:42;;;;;;;;;;;;;;;10.83;80.28;99843.09;4916537;29;19954;-67
2022/10/03 03:18:27;;;;;;;;;;;;;;;10.86;80.45;99850.69;4916013;29;20452;-67
2022/10/03 03:21:12;;;;;;;;;;;;;;;10.86;80.21;99859.44;4917999;29;19935;-67
2022/10/03 03:23:53;;;;;;;;;;;;;;;10.88;80.45;99859.25;4917839;29;20451;-67
2022/10/03 03:26:38;;;;;;;;;;;;;;;10.88;80.08;99857.44;4916481;29;19923;-67
2022/10/03 03:29:09;;;;;;;;;;;;;;;10.90;80.15;99868.69;4916510;29;19931;-67
2022/10/03 03:32:02;;;;;;;;;;;;;;;10.90;80.28;99867.88;4916279;29;19923;-67
2022/10/03 03:34:28;;;;;;;;;;;;;;;10.89;80.34;99872.31;4909353;29;19988;-66
2022/10/03 03:37:01;;;;;;;;;;;;;;;10.89;80.67;99874.13;4916734;29;19927;-67
2022/10/03 03:39:33;;;;;;;;;;;;;;;10.85;80.45;99878.94;4917259;29;20355;-67
2022/10/03 03:41:59;;;;;;;;;;;;;;;10.84;80.64;99872.00;4917540;29;20352;-67
2022/10/03 03:44:26;;;;;;;;;;;;;;;10.83;80.65;99873.00;4917200;29;19954;-67
2022/10/03 03:46:55;;;;;;;;;;;;;;;10.78;79.96;99875.34;4915744;29;20292;-67
2022/10/03 03:49:41;;;;;;;;;;;;;;;10.73;79.68;99874.97;4917063;29;20303;-67
2022/10/03 03:52:16;;;;;;;;;;;;;;;10.72;80.47;99877.81;4917209;29;19923;-67
2022/10/03 03:54:49;;;;;;;;;;;;;;;10.76;80.81;99884.41;4915915;29;19922;-67
2022/10/03 03:57:36;;;;;;;;;;;;;;;10.77;80.69;99884.22;4916452;29;20367;-67
2022/10/03 04:00:02;;;;;;;;;;;;;;;10.77;80.52;99886.88;4917377;29;20351;-67
2022/10/03 04:13:27;;;;;;;;;;;;;;;10.85;80.43;99873.63;6194883;22;2194676;-66
2022/10/03 04:16:13;;;;;;;;;;;;;;;10.87;80.35;99892.84;6284828;22;20002;-67
2022/10/03 04:18:57;;;;;;;;;;;;;;;10.86;79.91;99888.53;6258640;22;19941;-67
2022/10/03 04:21:42;;;;;;;;;;;;;;;10.81;79.98;99880.25;6284537;22;19965;-66
2022/10/03 04:24:26;;;;;;;;;;;;;;;10.81;80.15;99879.44;6284694;22;20306;-66
2022/10/03 04:27:11;;;;;;;;;;;;;;;10.80;80.28;99880.44;6284300;22;19985;-66
2022/10/03 04:29:42;;;;;;;;;;;;;;;10.77;80.18;99878.94;6285333;22;19948;-67
2022/10/03 04:32:15;;;;;;;;;;;;;;;10.76;80.07;99882.59;6284928;22;19969;-67
2022/10/03 04:34:52;;;;;;;;;;;;;;;10.73;80.05;99884.75;6284827;22;20307;-67
2022/10/03 04:37:24;;;;;;;;;;;;;;;10.73;79.99;99882.09;6284349;22;20181;-67
2022/10/03 04:40:00;;;;;;;;;;;;;;;10.73;79.90;99877.63;6284677;22;19919;-67
2022/10/03 04:42:27;;;;;;;;;;;;;;;10.76;80.20;99877.31;6257561;22;19919;-67
2022/10/03 04:45:05;;;;;;;;;;;;;;;10.75;79.95;99883.59;6284588;22;20222;-67
2022/10/03 04:47:38;;;;;;;;;;;;;;;10.68;79.37;99887.88;6284075;22;19920;-67
2022/10/03 04:50:10;;;;;;;;;;;;;;;10.61;79.20;99887.75;6256978;22;19926;-67
2022/10/03 04:52:41;;;;;;;;;;;;;;;10.62;80.08;99891.22;6257676;22;20237;-67
2022/10/03 04:55:26;;;;;;;;;;;;;;;10.66;80.50;99903.13;6284642;22;20390;-67
2022/10/03 04:57:56;;;;;;;;;;;;;;;10.69;80.45;99901.94;6283788;22;19923;-67
2022/10/03 05:00:51;;;;;;;;;;;;;;;10.67;80.18;99907.41;6259035;22;19973;-67
2022/10/03 05:03:20;;;;;;;;;;;;;;;10.62;80.20;99907.09;6257166;22;19923;-67
2022/10/03 05:05:59;;;;;;;;;;;;;;;10.56;80.03;99902.44;6284549;22;19927;-67
2022/10/03 05:08:39;;;;;;;;;;;;;;;10.51;80.12;99904.75;6231519;22;20264;-67
2022/10/03 05:11:06;;;;;;;;;;;;;;;10.48;80.48;99915.66;6257157;22;19923;-67
2022/10/03 05:14:05;;;;;;;;;;;;;;;10.48;80.66;99913.00;6279486;22;19992;-67
2022/10/03 05:16:37;;;;;;;;;;;;;;;10.45;80.39;99910.69;6209714;22;19919;-67
2022/10/03 05:19:15;;;;;;;;;;;;;;;10.41;80.18;99908.41;6277202;22;20329;-67
2022/10/03 05:21:54;;;;;;;;;;;;;;;10.35;80.23;99911.69;6278197;22;19919;-67
2022/10/03 05:24:44;;;;;;;;;;;;;;;10.29;80.08;99909.72;6250636;22;19965;-67
2022/10/03 05:27:13;;;;;;;;;;;;;;;10.27;80.62;99909.03;6249762;22;19920;-67
2022/10/03 05:29:50;;;;;;;;;;;;;;;10.29;81.00;99916.81;6250569;22;19923;-67
2022/10/03 05:32:46;;;;;;;;;;;;;;;10.30;80.87;99918.47;6277008;22;19980;-67
2022/10/03 05:35:18;;;;;;;;;;;;;;;10.25;80.02;99928.72;6144083;22;19924;-67
2022/10/03 05:38:00;;;;;;;;;;;;;;;10.20;80.43;99929.13;6249685;22;19919;-68
2022/10/03 05:40:28;;;;;;;;;;;;;;;10.13;80.47;99933.44;6277031;22;19950;-68
2022/10/03 05:43:04;;;;;;;;;;;;;;;10.07;80.01;99936.72;6276902;22;19927;-68
2022/10/03 05:45:45;;;;;;;;;;;;;;;10.03;80.60;99944.13;6249890;22;19919;-68
2022/10/03 05:48:27;;;;;;;;;;;;;;;10.05;80.82;99943.97;6249453;22;19926;-67
2022/10/03 05:51:00;;;;;;;;;;;;;;;10.06;80.39;99946.44;6277171;22;19919;-67
2022/10/03 05:53:45;;;;;;;;;;;;;;;10.10;80.18;99952.25;6250354;22;20290;-68
2022/10/03 05:56:30;;;;;;;;;;;;;;;10.12;80.28;99966.09;6276538;22;20289;-67
2022/10/03 05:59:21;;;;;;;;;;;;;;;10.15;80.54;99974.53;6249738;22;19924;-67
2022/10/03 06:02:06;;;;;;;;;;;;;;;10.07;79.39;99971.88;6276657;22;19923;-67
2022/10/03 06:04:40;;;;;;;;;;;;;;;9.97;79.24;99979.13;6276867;22;19919;-67
2022/10/03 06:07:20;;;;;;;;;;;;;;;9.96;79.73;99976.63;6276087;22;19972;-67
2022/10/03 06:09:49;;;;;;;;;;;;;;;9.96;79.58;99985.41;6277189;22;20325;-67
2022/10/03 06:12:22;;;;;;;;;;;;;;;9.99;80.56;99990.34;6249381;22;19923;-67
2022/10/03 06:15:07;;;;;;;;;;;;;;;10.05;80.75;99989.72;6277087;22;20332;-68
2022/10/03 06:17:46;;;;;;;;;;;;;;;10.12;80.89;99990.75;6249719;22;20407;-68
2022/10/03 06:20:35;;;;;;;;;;;;;;;10.17;79.95;99991.09;6277035;22;19985;-67
2022/10/03 06:23:02;;;;;;;;;;;;;;;10.20;80.18;99989.09;6260720;22;19927;-68
2022/10/03 06:25:40;;;;;;;;;;;;;;;10.20;79.67;99995.19;6249185;22;20333;-68
2022/10/03 06:28:25;;;;;;;;;;;;;;;10.22;80.18;99987.13;6249344;22;19945;-67
2022/10/03 06:31:21;;;;;;;;;;;;;;;10.26;80.11;99989.31;6249600;22;19947;-67
2022/10/03 06:34:03;;;;;;;;;;;;;;;10.33;80.33;99992.16;6224584;22;19946;-67
2022/10/03 06:36:35;;;;;;;;;;;;;;;10.33;79.68;100000.06;6276188;22;19919;-67
2022/10/03 06:39:20;;;;;;;;;;;;;;;10.32;79.77;99990.47;6249940;22;19919;-68
2022/10/03 06:42:07;;;;;;;;;;;;;;;10.33;79.88;100005.38;6250005;22;19927;-67
2022/10/03 06:44:45;;;;;;;;;;;;;;;10.40;80.28;100004.53;6249735;22;19958;-68
2022/10/03 06:47:31;;;;;;;;;;;;;;;10.46;79.97;99997.78;6248863;22;19920;-67
2022/10/03 06:49:57;;;;;;;;;;;;;;;10.49;79.99;100002.75;6276752;22;20352;-67
2022/10/03 06:52:33;;;;;;;;;;;;;;;10.52;79.69;99993.66;6249615;22;19934;-67
2022/10/03 06:55:18;;;;;;;;;;;;;;;10.55;79.45;99995.97;6224347;22;19926;-68
2022/10/03 06:58:03;;;;;;;;;;;;;;;10.56;79.56;99992.34;6249015;22;19965;-68
2022/10/03 07:00:32;;;;;;;;;;;;;;;10.60;79.39;99994.47;6276247;22;19976;-67
2022/10/03 07:03:18;;;;;;;;;;;;;;;10.68;79.15;99996.31;6276919;22;19992;-68
2022/10/03 07:06:05;;;;;;;;;;;;;;;10.81;79.28;99993.19;6277638;22;19920;-67
2022/10/03 07:08:52;;;;;;;;;;;;;;;10.94;79.20;100000.63;6189613;22;19924;-67
2022/10/03 07:11:34;;;;;;;;;;;;;;;11.05;78.37;99997.66;6250863;22;19977;-67
2022/10/03 07:14:13;;;;;;;;;;;;;;;11.15;78.04;99993.03;6250990;22;19920;-68
2022/10/03 07:16:45;;;;;;;;;;;;;;;11.14;77.60;100002.78;6276441;22;20165;-68
2022/10/03 07:19:19;;;;;;;;;;;;;;;11.16;77.93;100003.44;6249640;22;19927;-68
2022/10/03 07:22:04;;;;;;;;;;;;;;;11.19;78.07;100006.75;6248948;22;19919;-69
2022/10/03 07:24:46;;;;;;;;;;;;;;;11.24;78.14;100005.25;6277321;22;19919;-68
2022/10/03 07:27:22;;;;;;;;;;;;;;;11.32;78.03;100004.41;6248634;22;19926;-68
2022/10/03 07:30:03;;;;;;;;;;;;;;;11.38;77.82;100009.84;6276177;22;20261;-68
2022/10/03 07:32:36;;;;;;;;;;;;;;;11.44;77.88;100007.53;6276130;22;20288;-68
2022/10/03 07:35:23;;;;;;;;;;;;;;;11.47;77.53;100005.38;6249111;22;20088;-68
2022/10/03 07:41:13;;;;;;;;;;;;;;;11.58;77.00;100009.47;6276037;22;20195;-70
2022/10/03 07:43:53;;;;;;;;;;;;;;;11.64;76.81;100011.47;6275998;22;20260;-68
2022/10/03 07:46:23;;;;;;;;;;;;;;;11.67;77.00;100016.38;6275406;22;19927;-68
2022/10/03 07:49:09;;;;;;;;;;;;;;;11.70;76.98;100015.25;6249189;22;19919;-68
2022/10/03 07:51:39;;;;;;;;;;;;;;;11.78;77.15;100020.50;6275930;22;19969;-69
2022/10/03 07:54:15;;;;;;;;;;;;;;;11.83;76.69;100018.19;6276138;22;19985;-67
2022/10/03 07:57:05;;;;;;;;;;;;;;;11.90;76.68;100020.00;6275628;22;20291;-68
2022/10/03 07:59:39;;;;;;;;;;;;;;;12.01;76.50;100029.41;6276140;22;20310;-68
2022/10/03 08:02:23;;;;;;;;;;;;;;;12.08;76.11;100027.72;6275702;22;19946;-68
2022/10/03 08:05:14;;;;;;;;;;;;;;;12.16;76.19;100026.84;6275824;22;20014;-68
2022/10/03 08:07:44;;;;;;;;;;;;;;;12.23;75.05;100029.63;6275276;22;19923;-68
2022/10/03 08:10:16;;;;;;;;;;;;;;;12.24;75.03;100028.63;6275818;22;19972;-68
2022/10/03 08:12:51;;;;;;;;;;;;;;;12.28;75.54;100025.44;6275611;22;20329;-68
2022/10/03 08:15:20;;;;;;;;;;;;;;;12.31;75.13;100019.81;6276029;22;20344;-68
2022/10/03 08:17:58;;;;;;;;;;;;;;;12.34;75.16;100030.06;6275657;22;19965;-69
2022/10/03 08:20:36;;;;;;;;;;;;;;;12.39;75.10;100034.84;6248728;22;19923;-68
2022/10/03 08:23:09;;;;;;;;;;;;;;;12.42;74.75;100031.88;6223901;22;19919;-68
2022/10/03 08:25:38;;;;;;;;;;;;;;;12.48;74.18;100027.69;6248728;22;20013;-68
2022/10/03 08:28:05;;;;;;;;;;;;;;;12.56;74.66;100027.63;6274979;22;20407;-68
2022/10/03 08:30:46;;;;;;;;;;;;;;;12.69;74.85;100025.22;6275853;22;20300;-68
2022/10/03 08:33:16;;;;;;;;;;;;;;;12.82;74.84;100027.31;6275859;22;20260;-69
2022/10/03 08:35:42;;;;;;;;;;;;;;;12.95;74.76;100030.19;6248824;22;19919;-69
2022/10/03 08:38:08;;;;;;;;;;;;;;;12.97;73.38;100033.47;6248262;22;19924;-69
2022/10/03 08:40:38;;;;;;;;;;;;;;;12.94;72.41;100030.34;6248484;22;20010;-68
2022/10/03 08:43:16;;;;;;;;;;;;;;;12.88;72.59;100037.19;6248627;22;19919;-68
2022/10/03 08:45:50;;;;;;;;;;;;;;;12.97;73.47;100037.97;6275854;22;19919;-68
2022/10/03 08:48:25;;;;;;;;;;;;;;;13.08;73.32;100035.72;6275925;22;20254;-69
2022/10/03 08:50:58;;;;;;;;;;;;;;;13.17;73.23;100033.81;6277595;22;19926;-68
2022/10/03 08:53:43;;;;;;;;;;;;;;;13.29;73.01;100035.06;6250339;22;20342;-68
2022/10/03 08:56:14;;;;;;;;;;;;;;;13.36;72.86;100028.03;6276908;22;19928;-69
2022/10/03 08:58:59;;;;;;;;;;;;;;;13.44;73.02;100032.44;6250606;22;19926;-68
2022/10/03 09:01:28;;;;;;;;;;;;;;;13.51;72.44;100032.53;6250373;22;19919;-68
2022/10/03 09:04:10;;;;;;;;;;;;;;;13.60;72.16;100032.28;6250376;22;20110;-68
2022/10/03 09:06:43;;;;;;;;;;;;;;;13.75;71.92;100028.78;6277152;22;19919;-68
2022/10/03 09:09:44;;;;;;;;;;;;;;;13.84;71.37;100031.19;6277498;22;19923;-69
2022/10/03 09:12:13;;;;;;;;;;;;;;;13.88;71.21;100031.66;6277339;22;20017;-69
2022/10/03 09:14:43;;;;;;;;;;;;;;;13.96;71.01;100033.34;6277420;22;20360;-68
2022/10/03 09:17:09;;;;;;;;;;;;;;;13.99;71.27;100028.50;6276775;22;19923;-68
2022/10/03 09:19:36;;;;;;;;;;;;;;;14.04;70.70;100034.09;6250357;22;19919;-69
2022/10/03 09:22:21;;;;;;;;;;;;;;;14.10;70.71;100025.38;6277750;22;20321;-67
2022/10/03 09:25:07;;;;;;;;;;;;;;;14.13;70.29;100033.00;6277759;22;19980;-68
2022/10/03 09:27:45;;;;;;;;;;;;;;;14.24;69.92;100030.84;6249483;22;20238;-68
2022/10/03 09:30:11;;;;;;;;;;;;;;;14.30;69.87;100036.25;6277298;22;20300;-68
2022/10/03 09:32:56;;;;;;;;;;;;;;;14.39;70.22;100036.97;6250429;22;20467;-68
2022/10/03 09:35:37;;;;;;;;;;;;;;;14.43;69.82;100042.75;6278283;22;19926;-68
2022/10/03 09:38:06;;;;;;;;;;;;;;;14.44;69.81;100034.56;6277912;22;20340;-67
2022/10/03 09:40:48;;;;;;;;;;;;;;;14.51;69.81;100038.16;6277141;22;19919;-68
2022/10/03 09:43:37;;;;;;;;;;;;;;;14.66;69.81;100048.78;6277099;22;19926;-68
2022/10/03 09:46:20;;;;;;;;;;;;;;;14.73;68.30;100040.84;6278026;22;19919;-68
2022/10/03 09:49:05;;;;;;;;;;;;;;;14.71;68.36;100042.88;6250080;22;20304;-67
2022/10/03 09:51:47;;;;;;;;;;;;;;;14.91;68.80;100035.09;6277142;22;19946;-68
2022/10/03 09:54:42;;;;;;;;;;;;;;;14.97;68.57;100029.00;6277244;22;19926;-67
2022/10/03 09:57:30;;;;;;;;;;;;;;;15.06;67.62;100034.00;6276821;22;20393;-66
2022/10/03 09:59:57;;;;;;;;;;;;;;;15.00;67.58;100025.94;6277172;22;19981;-67
2022/10/03 10:02:43;;;;;;;;;;;;;;;15.00;68.14;100032.09;6224585;22;19927;-67
2022/10/03 10:05:32;;;;;;;;;;;;;;;15.03;68.33;100020.25;6250692;22;19923;-68
2022/10/03 10:07:59;;;;;;;;;;;;;;;15.05;68.19;100018.22;6276628;22;19956;-67
2022/10/03 10:10:44;;;;;;;;;;;;;;;15.02;67.82;100023.91;6278123;22;19920;-66
2022/10/03 10:13:28;;;;;;;;;;;;;;;14.92;67.45;100016.25;6276834;22;19919;-67
2022/10/03 10:16:27;;;;;;;;;;;;;;;14.83;67.44;100018.22;6253890;22;20347;-68
2022/10/03 10:18:56;;;;;;;;;;;;;;;14.78;67.77;100017.97;6277666;22;19941;-68
2022/10/03 10:21:23;;;;;;;;;;;;;;;14.84;67.78;100011.88;6276762;22;20006;-67
2022/10/03 10:23:58;;;;;;;;;;;;;;;14.92;67.80;100012.78;6276762;22;20534;-68
2022/10/03 10:26:44;;;;;;;;;;;;;;;15.04;67.95;100013.91;6275929;22;20325;-68
2022/10/03 10:29:30;;;;;;;;;;;;;;;15.16;67.60;100015.03;6250147;22;19919;-67
2022/10/03 10:32:00;;;;;;;;;;;;;;;15.25;67.27;100019.19;6277028;22;19941;-68
2022/10/03 10:34:48;;;;;;;;;;;;;;;15.31;67.07;100014.94;6276488;22;19919;-68
2022/10/03 10:37:24;;;;;;;;;;;;;;;15.31;66.86;100004.28;6276319;22;20290;-68
2022/10/03 10:39:51;;;;;;;;;;;;;;;15.30;67.00;100022.09;6249667;22;20345;-68
2022/10/03 10:42:35;;;;;;;;;;;;;;;15.30;67.04;100019.44;6249070;22;19938;-69
2022/10/03 10:45:13;;;;;;;;;;;;;;;15.34;66.93;100017.22;6249586;22;19972;-68
2022/10/03 10:48:01;;;;;;;;;;;;;;;15.41;67.32;100011.94;6248931;22;19945;-68
2022/10/03 10:50:27;;;;;;;;;;;;;;;15.51;66.92;100009.72;6249510;22;19919;-68
2022/10/03 10:53:13;;;;;;;;;;;;;;;15.65;66.79;100008.84;6224435;22;19923;-68
2022/10/03 10:56:12;;;;;;;;;;;;;;;15.77;66.47;100007.28;6276552;22;19925;-68
2022/10/03 10:58:57;;;;;;;;;;;;;;;15.88;65.86;100007.72;6184846;22;20333;-68
2022/10/03 11:01:43;;;;;;;;;;;;;;;15.91;65.13;100000.16;6276313;22;20337;-68
2022/10/03 11:04:31;;;;;;;;;;;;;;;15.97;64.96;100003.88;6249199;22;19919;-68
2022/10/03 11:07:07;;;;;;;;;;;;;;;16.08;64.58;100005.97;6228578;22;19919;-68
2022/10/03 11:09:54;;;;;;;;;;;;;;;16.13;64.34;99997.41;6276233;22;19919;-69
2022/10/03 11:12:36;;;;;;;;;;;;;;;16.18;63.20;99989.59;6249088;22;20273;-68
2022/10/03 11:15:09;;;;;;;;;;;;;;;16.19;62.70;99980.56;6249074;22;19925;-70
2022/10/03 11:17:52;;;;;;;;;;;;;;;16.29;63.15;99981.84;6248449;22;19919;-68
2022/10/03 11:20:37;;;;;;;;;;;;;;;16.39;63.13;99986.78;6250134;22;20312;-68
2022/10/03 11:23:07;;;;;;;;;;;;;;;16.56;61.93;99982.72;6275987;22;19919;-69
2022/10/03 11:25:52;;;;;;;;;;;;;;;16.76;61.97;99976.63;6276073;22;20241;-69
2022/10/03 11:28:19;;;;;;;;;;;;;;;16.91;60.88;99971.09;6249407;22;19923;-68
2022/10/03 11:31:12;;;;;;;;;;;;;;;17.02;59.91;99973.97;6276662;22;19927;-68
2022/10/03 11:33:40;;;;;;;;;;;;;;;17.02;59.48;99967.78;6276384;22;19920;-68
2022/10/03 11:36:26;;;;;;;;;;;;;;;17.18;59.78;99979.91;6248727;22;19926;-69
2022/10/03 11:39:15;;;;;;;;;;;;;;;17.32;58.88;99969.00;6276175;22;19926;-69
2022/10/03 11:41:57;;;;;;;;;;;;;;;17.49;58.42;99964.03;6193945;22;19927;-68
2022/10/03 11:44:26;;;;;;;;;;;;;;;17.57;58.37;99957.66;6249223;22;19919;-69
2022/10/03 11:47:01;;;;;;;;;;;;;;;17.67;57.66;99952.66;6251370;22;19919;-66
2022/10/03 11:49:39;;;;;;;;;;;;;;;17.92;57.63;99947.47;6287448;22;20351;-68
2022/10/03 11:52:26;;;;;;;;;;;;;;;18.27;56.45;99937.19;6233381;22;20387;-68
2022/10/03 11:55:04;;;;;;;;;;;;;;;18.62;56.27;99939.44;6276183;22;19926;-68
2022/10/03 11:57:33;;;;;;;;;;;;;;;18.87;55.92;99933.31;6275532;22;19923;-67
2022/10/03 12:00:03;;;;;;;;;;;;;;;19.02;55.21;99934.63;6249361;22;19919;-66
2022/10/03 12:02:45;;;;;;;;;;;;;;;19.07;54.80;99933.97;6275815;22;19919;-67
2022/10/03 12:05:26;;;;;;;;;;;;;;;19.10;54.34;99928.13;6276085;22;19926;-67
2022/10/03 12:10:38;;;;;;;;;;;;;;;18.83;54.33;99932.13;6276110;22;19926;-67
2022/10/03 12:13:13;;;;;;;;;;;;;;;18.73;54.62;99928.03;6275834;22;19926;-67
2022/10/03 12:15:40;;;;;;;;;;;;;;;18.79;55.00;99929.88;6276322;22;19998;-66
2022/10/03 12:18:15;;;;;;;;;;;;;;;18.70;54.24;99915.13;6248633;22;19970;-68
2022/10/03 12:20:48;;;;;;;;;;;;;;;18.64;53.85;99923.97;6282435;22;19919;-67
2022/10/03 12:23:33;;;;;;;;;;;;;;;18.70;54.23;99914.28;6257336;22;19919;-67
2022/10/03 12:26:02;;;;;;;;;;;;;;;18.76;54.23;99916.91;6302680;22;19914;-67
2022/10/03 12:28:35;;;;;;;;;;;;;;;18.87;54.24;99909.19;6278383;22;19919;-67
2022/10/03 12:31:03;;;;;;;;;;;;;;;18.98;53.41;99905.78;6279238;22;19919;-67
2022/10/03 12:33:38;;;;;;;;;;;;;;;19.07;53.63;99906.34;6304735;22;19920;-68
2022/10/03 12:36:07;;;;;;;;;;;;;;;19.22;53.25;99912.97;6276899;22;19967;-67
2022/10/03 12:38:40;;;;;;;;;;;;;;;19.30;52.33;99901.94;6302833;22;19907;-67
2022/10/03 12:41:20;;;;;;;;;;;;;;;19.12;52.31;99903.81;6279295;22;19908;-67
2022/10/03 12:44:03;;;;;;;;;;;;;;;18.95;52.43;99893.66;6270684;22;19919;-68
2022/10/03 12:46:36;;;;;;;;;;;;;;;18.92;52.33;99899.47;6250389;22;19919;-67
2022/10/03 12:49:06;;;;;;;;;;;;;;;18.92;52.10;99898.63;6278158;22;19969;-67
2022/10/03 12:51:42;;;;;;;;;;;;;;;18.87;51.68;99898.50;6277967;22;20329;-68
2022/10/03 12:54:24;;;;;;;;;;;;;;;18.87;51.48;99891.28;6277950;22;20364;-67
2022/10/03 12:57:24;;;;;;;;;;;;;;;18.72;51.55;99899.63;6250235;22;19926;-67
2022/10/03 13:00:00;;;;;;;;;;;;;;;18.58;50.97;99890.03;6225767;22;19923;-67
2022/10/03 13:02:29;;;;;;;;;;;;;;;18.44;51.62;99891.97;6278102;22;19919;-68
2022/10/03 13:05:22;;;;;;;;;;;;;;;18.36;51.47;99897.59;6278147;22;19919;-68
2022/10/03 13:07:55;;;;;;;;;;;;;;;18.24;51.76;99878.75;6277115;22;20195;-68
2022/10/03 13:10:41;;;;;;;;;;;;;;;18.17;51.36;99880.66;6277844;22;19923;-68
2022/10/03 13:13:26;;;;;;;;;;;;;;;18.06;51.75;99879.47;6277392;22;19919;-68
2022/10/03 13:16:07;;;;;;;;;;;;;;;17.92;51.76;99887.78;6250513;22;19926;-68
2022/10/03 13:18:40;;;;;;;;;;;;;;;17.82;51.80;99885.56;6250294;22;19985;-69
2022/10/03 13:21:09;;;;;;;;;;;;;;;17.75;52.18;99880.25;6250495;22;19919;-67
2022/10/03 13:23:58;;;;;;;;;;;;;;;17.71;52.15;99883.53;6277638;22;19970;-68
2022/10/03 13:26:27;;;;;;;;;;;;;;;17.64;52.32;99883.59;6276786;22;19926;-68
2022/10/03 13:29:11;;;;;;;;;;;;;;;17.58;52.85;99889.75;6250519;22;19919;-68
2022/10/03 13:31:56;;;;;;;;;;;;;;;17.60;52.98;99885.03;6250652;22;19919;-68
2022/10/03 13:34:26;;;;;;;;;;;;;;;17.58;53.12;99879.06;6277441;22;19962;-68
2022/10/03 13:36:55;;;;;;;;;;;;;;;17.55;53.14;99890.19;6276435;22;19919;-68
2022/10/03 13:39:26;;;;;;;;;;;;;;;17.44;53.04;99877.50;6250346;22;19920;-67
2022/10/03 13:41:54;;;;;;;;;;;;;;;17.30;53.47;99884.72;6250319;22;19919;-68
2022/10/03 13:44:22;;;;;;;;;;;;;;;17.27;53.91;99882.47;6277398;22;19919;-68
2022/10/03 13:47:02;;;;;;;;;;;;;;;17.33;53.59;99884.31;6249144;22;20325;-68
2022/10/03 13:49:31;;;;;;;;;;;;;;;17.47;53.85;99875.22;6249926;22;19966;-68
2022/10/03 13:52:10;;;;;;;;;;;;;;;17.62;53.69;99880.28;6276810;22;20249;-68
2022/10/03 13:54:42;;;;;;;;;;;;;;;17.76;53.62;99873.88;6250279;22;19919;-68
2022/10/03 13:57:22;;;;;;;;;;;;;;;17.97;53.22;99874.59;6249200;22;19927;-68